Time;durP1;ratioP1;P1;durP2;ratioP2;P2;SDS_P1;SDS_P2;PMS_P1;PMS_P2;Temp;Humidity;BMP_temperature;BMP_pressure;BME280_temperature;BME280_humidity;BME280_pressure;Samples;Min_cycle;Max_cycle;Signal;HPM_P1;HPM_P2
2022/06/06 00:02:27;;;;;;;6.97;6.47;;;23.10;73.90;;;;;;6111746;23;20439;-85
2022/06/06 00:04:54;;;;;;;7.10;6.67;;;23.10;73.90;;;;;;6126023;23;20458;-84
2022/06/06 00:07:22;;;;;;;7.40;6.90;;;23.10;73.90;;;;;;6124882;23;20935;-78
2022/06/06 00:09:49;;;;;;;7.10;6.50;;;23.20;74.00;;;;;;6126181;23;20438;-79
2022/06/06 00:12:16;;;;;;;7.60;7.00;;;23.10;73.80;;;;;;6126346;23;20439;-84
2022/06/06 00:14:58;;;;;;;7.03;6.53;;;23.10;73.90;;;;;;6108739;23;20435;-83
2022/06/06 00:17:25;;;;;;;7.00;6.60;;;23.10;74.00;;;;;;6125810;23;20903;-79
2022/06/06 00:19:56;;;;;;;6.77;6.27;;;23.10;74.00;;;;;;6125302;23;20755;-77
2022/06/06 00:22:27;;;;;;;7.00;6.43;;;23.20;74.10;;;;;;6126219;23;20945;-77
2022/06/06 00:24:54;;;;;;;7.40;6.90;;;23.20;74.20;;;;;;6125375;23;20438;-84
2022/06/06 00:27:21;;;;;;;6.60;6.20;;;23.20;74.10;;;;;;6125773;23;20501;-79
2022/06/06 00:29:49;;;;;;;7.87;7.13;;;23.10;74.00;;;;;;6125430;23;20736;-84
2022/06/06 00:35:03;;;;;;;6.97;6.47;;;23.10;74.20;;;;;;6126185;23;20492;-83
2022/06/06 00:37:34;;;;;;;7.67;7.07;;;23.10;74.30;;;;;;6126163;23;20470;-80
2022/06/06 00:40:02;;;;;;;7.23;6.80;;;23.10;74.50;;;;;;6125596;23;20443;-83
2022/06/06 00:42:32;;;;;;;7.30;6.80;;;23.10;74.50;;;;;;6126481;23;20462;-84
2022/06/06 00:45:32;;;;;;;6.70;6.30;;;23.10;74.60;;;;;;6125549;23;20981;-84
2022/06/06 00:48:17;;;;;;;7.37;6.77;;;23.10;74.70;;;;;;6125515;23;20446;-84
2022/06/06 00:50:56;;;;;;;7.40;6.80;;;23.10;74.70;;;;;;6126116;23;20445;-84
2022/06/06 00:53:30;;;;;;;7.20;6.70;;;23.10;74.80;;;;;;6126034;23;20902;-84
2022/06/06 00:56:02;;;;;;;8.07;7.40;;;23.10;74.90;;;;;;6126104;23;20435;-79
2022/06/06 00:58:32;;;;;;;7.43;6.93;;;23.10;75.80;;;;;;6125322;23;20445;-79
2022/06/06 01:01:01;;;;;;;8.53;7.07;;;23.10;76.90;;;;;;6125576;23;20816;-79
2022/06/06 01:03:29;;;;;;;8.23;7.63;;;23.10;80.00;;;;;;6125241;23;20435;-79
2022/06/06 01:05:59;;;;;;;8.67;7.97;;;23.10;81.30;;;;;;6125246;23;20446;-79
2022/06/06 01:08:29;;;;;;;8.70;7.90;;;23.10;82.00;;;;;;6124474;23;20498;-79
2022/06/06 01:10:57;;;;;;;7.53;7.03;;;23.00;82.70;;;;;;6125424;23;20451;-79
2022/06/06 01:13:25;;;;;;;8.07;7.47;;;23.00;83.40;;;;;;6126939;23;20454;-79
2022/06/06 01:16:28;;;;;;;7.80;7.30;;;22.90;83.90;;;;;;6127280;23;20435;-78
2022/06/06 01:19:06;;;;;;;7.93;7.37;;;22.90;84.80;;;;;;6127678;23;20449;-78
2022/06/06 01:22:08;;;;;;;8.47;7.87;;;22.90;85.40;;;;;;6128045;23;20465;-78
2022/06/06 01:24:50;;;;;;;8.57;7.97;;;22.80;85.90;;;;;;6127795;23;20951;-78
2022/06/06 01:27:33;;;;;;;8.93;8.33;;;22.80;87.90;;;;;;6127652;23;20442;-82
2022/06/06 01:30:06;;;;;;;8.50;8.00;;;22.70;87.90;;;;;;6127429;23;20489;-79
2022/06/06 01:32:39;;;;;;;8.10;7.60;;;22.70;90.20;;;;;;6128498;23;20842;-83
2022/06/06 01:35:08;;;;;;;7.63;7.13;;;22.70;89.70;;;;;;6127874;23;20425;-84
2022/06/06 01:37:38;;;;;;;8.23;7.53;;;22.60;89.30;;;;;;6128569;23;20902;-83
2022/06/06 01:40:09;;;;;;;8.80;8.10;;;22.60;90.80;;;;;;6127387;23;20918;-78
2022/06/06 01:42:44;;;;;;;9.33;8.73;;;22.50;90.80;;;;;;6127495;23;20442;-79
2022/06/06 01:45:19;;;;;;;9.00;8.43;;;22.50;90.50;;;;;;6126749;23;20429;-78
2022/06/06 01:47:50;;;;;;;9.27;8.60;;;22.50;90.50;;;;;;6127535;23;20503;-78
2022/06/06 01:50:19;;;;;;;9.90;9.20;;;22.40;90.40;;;;;;6127035;23;20696;-84
2022/06/06 01:52:56;;;;;;;10.20;9.50;;;22.40;90.20;;;;;;6127941;23;20438;-78
2022/06/06 01:55:26;;;;;;;9.00;8.30;;;22.40;90.60;;;;;;6126926;23;20442;-83
2022/06/06 01:57:57;;;;;;;9.37;8.73;;;22.40;91.60;;;;;;6127984;23;20445;-78
2022/06/06 02:00:26;;;;;;;10.57;9.67;;;22.40;92.50;;;;;;6130290;23;20437;-82
2022/06/06 02:02:53;;;;;;;18.23;16.47;;;22.40;93.20;;;;;;6132030;23;20446;-78
2022/06/06 02:05:21;;;;;;;26.83;23.90;;;22.40;92.40;;;;;;6125503;23;20427;-78
2022/06/06 02:07:54;;;;;;;20.23;18.23;;;22.30;91.50;;;;;;6125868;23;20442;-77
2022/06/06 02:10:22;;;;;;;17.07;15.47;;;22.30;91.80;;;;;;6126778;23;20534;-78
2022/06/06 02:12:50;;;;;;;14.13;12.93;;;22.30;92.80;;;;;;6128229;23;20452;-83
2022/06/06 02:15:20;;;;;;;11.43;10.63;;;22.30;93.60;;;;;;6127231;23;20497;-78
2022/06/06 02:17:50;;;;;;;11.73;10.93;;;22.30;94.60;;;;;;6127338;23;20514;-78
2022/06/06 02:20:19;;;;;;;11.30;10.43;;;22.20;95.60;;;;;;6128002;23;20443;-82
2022/06/06 02:22:46;;;;;;;10.07;9.37;;;22.20;96.90;;;;;;6128535;23;20536;-83
2022/06/06 02:25:14;;;;;;;10.27;9.57;;;22.10;97.80;;;;;;6126945;23;20497;-83
2022/06/06 02:27:42;;;;;;;11.73;10.60;;;22.10;99.00;;;;;;6129152;23;20521;-83
2022/06/06 02:30:12;;;;;;;10.87;10.03;;;22.10;99.80;;;;;;6126175;23;20438;-78
2022/06/06 02:32:39;;;;;;;11.50;10.60;;;22.00;99.90;;;;;;6126792;23;20929;-83
2022/06/06 02:35:10;;;;;;;10.90;10.10;;;22.00;99.90;;;;;;6126912;23;20469;-83
2022/06/06 02:37:37;;;;;;;10.20;9.50;;;21.90;99.90;;;;;;6128315;23;20457;-83
2022/06/06 02:40:05;;;;;;;12.53;11.50;;;21.90;99.90;;;;;;6112428;23;20442;-83
2022/06/06 02:42:33;;;;;;;11.13;10.23;;;21.80;99.90;;;;;;6129925;23;20420;-78
2022/06/06 02:45:05;;;;;;;13.17;12.27;;;21.80;99.90;;;;;;6147656;23;20502;-78
2022/06/06 02:47:32;;;;;;;11.87;11.07;;;21.70;99.90;;;;;;6127951;23;20439;-78
2022/06/06 02:50:08;;;;;;;18.50;17.00;;;21.70;99.90;;;;;;6146362;23;20447;-82
2022/06/06 02:52:38;;;;;;;16.27;15.07;;;21.70;99.90;;;;;;6108973;23;20448;-79
2022/06/06 02:55:08;;;;;;;14.80;13.60;;;21.60;99.90;;;;;;6129250;23;20442;-83
2022/06/06 02:57:38;;;;;;;13.10;12.10;;;21.60;99.90;;;;;;6128254;23;20514;-80
2022/06/06 03:00:07;;;;;;;55.77;49.00;;;21.60;99.90;;;;;;6127844;23;20469;-79
2022/06/06 03:02:34;;;;;;;27.00;24.40;;;21.50;99.90;;;;;;6126667;23;20445;-79
2022/06/06 03:05:02;;;;;;;18.57;16.97;;;21.50;99.90;;;;;;6126901;23;20448;-79
2022/06/06 03:07:36;;;;;;;15.93;14.53;;;21.50;99.90;;;;;;6126173;23;20452;-79
2022/06/06 03:10:19;;;;;;;13.40;12.50;;;21.50;99.90;;;;;;6132520;23;20470;-82
2022/06/06 03:13:06;;;;;;;14.50;13.20;;;21.40;99.90;;;;;;6132207;23;20493;-82
2022/06/06 03:21:40;;;;;;;13.10;12.20;;;21.30;99.90;;;;;;6127283;23;20500;-83
2022/06/06 03:24:25;;;;;;;14.80;13.60;;;21.30;99.90;;;;;;6127475;23;20440;-82
2022/06/06 03:27:11;;;;;;;14.33;13.23;;;21.30;99.90;;;;;;6127693;23;20495;-78
2022/06/06 03:29:55;;;;;;;12.53;11.63;;;21.20;99.90;;;;;;6126965;23;20493;-78
2022/06/06 03:32:33;;;;;;;15.70;14.47;;;21.20;99.90;;;;;;6127711;23;20501;-78
2022/06/06 03:35:12;;;;;;;63.97;56.97;;;21.20;99.90;;;;;;6127340;23;20437;-78
2022/06/06 03:37:45;;;;;;;66.40;55.50;;;21.10;99.90;;;;;;6127519;23;20491;-79
2022/06/06 03:40:19;;;;;;;26.90;24.20;;;21.10;99.90;;;;;;6127856;23;20462;-78
2022/06/06 03:42:55;;;;;;;18.17;16.53;;;21.10;99.90;;;;;;6126994;23;20440;-78
2022/06/06 03:45:27;;;;;;;15.37;14.03;;;21.10;99.90;;;;;;6127754;23;20444;-78
2022/06/06 03:48:06;;;;;;;15.97;14.77;;;21.10;99.90;;;;;;6113742;23;20503;-78
2022/06/06 03:50:42;;;;;;;18.63;16.87;;;21.10;99.90;;;;;;6127189;23;20465;-78
2022/06/06 03:53:15;;;;;;;21.70;19.93;;;21.10;99.90;;;;;;6125804;23;20422;-78
2022/06/06 03:55:53;;;;;;;18.23;16.80;;;21.00;99.90;;;;;;6127224;23;20453;-77
2022/06/06 03:58:23;;;;;;;17.03;15.73;;;21.00;99.90;;;;;;6127619;23;20438;-79
2022/06/06 04:00:56;;;;;;;18.37;16.70;;;20.90;99.90;;;;;;6125153;23;20436;-82
2022/06/06 04:03:25;;;;;;;19.10;17.67;;;20.80;99.90;;;;;;6126784;23;20555;-80
2022/06/06 04:05:53;;;;;;;17.80;16.50;;;20.80;99.90;;;;;;6126227;23;20774;-80
2022/06/06 04:08:20;;;;;;;23.30;21.40;;;20.80;99.90;;;;;;6127278;23;20948;-83
2022/06/06 04:10:58;;;;;;;18.23;16.83;;;20.70;99.90;;;;;;6127512;23;20823;-83
2022/06/06 04:13:43;;;;;;;16.43;15.23;;;20.70;99.90;;;;;;6127232;23;20435;-83
2022/06/06 04:16:27;;;;;;;19.33;17.77;;;20.70;99.90;;;;;;6127479;23;20441;-82
2022/06/06 04:19:05;;;;;;;17.70;16.20;;;20.70;99.90;;;;;;6127270;23;20912;-82
2022/06/06 04:21:45;;;;;;;15.80;14.60;;;20.70;99.90;;;;;;6126360;23;20434;-79
2022/06/06 04:24:25;;;;;;;18.20;16.80;;;20.70;99.90;;;;;;6126632;23;20434;-79
2022/06/06 04:27:00;;;;;;;20.73;18.90;;;20.70;99.90;;;;;;6126681;23;20519;-83
2022/06/06 04:29:37;;;;;;;19.20;17.80;;;20.70;99.90;;;;;;6125462;23;20452;-79
2022/06/06 04:32:16;;;;;;;17.30;16.00;;;20.60;99.90;;;;;;6127214;23;20508;-83
2022/06/06 04:34:51;;;;;;;16.30;14.93;;;20.60;99.90;;;;;;6126246;23;21244;-82
2022/06/06 04:37:25;;;;;;;15.53;14.33;;;20.60;99.90;;;;;;6126777;23;20522;-83
2022/06/06 04:40:01;;;;;;;16.90;15.60;;;20.60;99.90;;;;;;6126385;23;20423;-83
2022/06/06 04:42:39;;;;;;;17.33;16.07;;;20.60;99.90;;;;;;6126615;23;20919;-82
2022/06/06 04:45:13;;;;;;;17.60;16.20;;;20.60;99.90;;;;;;6127114;23;20925;-83
2022/06/06 04:47:42;;;;;;;16.10;14.93;;;20.50;99.90;;;;;;6127479;23;20435;-83
2022/06/06 04:50:12;;;;;;;14.93;13.80;;;20.60;99.90;;;;;;6128515;23;20439;-79
2022/06/06 04:52:44;;;;;;;14.57;13.47;;;20.60;99.90;;;;;;6127781;23;20439;-78
2022/06/06 04:55:13;;;;;;;14.53;13.53;;;20.60;99.90;;;;;;6128863;23;20923;-84
2022/06/06 04:57:47;;;;;;;15.33;14.23;;;20.60;99.90;;;;;;6127837;23;20758;-84
2022/06/06 05:00:16;;;;;;;15.37;14.13;;;20.60;99.90;;;;;;6128799;23;20435;-83
2022/06/06 05:02:43;;;;;;;15.70;14.50;;;20.60;99.90;;;;;;6127646;23;20438;-79
2022/06/06 05:05:11;;;;;;;15.13;14.03;;;20.60;99.90;;;;;;6128407;23;20442;-83
2022/06/06 05:08:05;;;;;;;15.60;14.50;;;20.60;99.90;;;;;;6128202;23;20508;-83
2022/06/06 05:10:50;;;;;;;18.43;16.80;;;20.60;99.90;;;;;;6128073;23;20453;-83
2022/06/06 05:13:46;;;;;;;17.43;15.93;;;20.50;99.90;;;;;;6127943;23;20441;-79
2022/06/06 05:16:31;;;;;;;15.63;14.47;;;20.50;99.90;;;;;;6091078;23;20900;-83
2022/06/06 05:19:22;;;;;;;16.70;15.40;;;20.50;99.90;;;;;;6128238;23;20440;-79
2022/06/06 05:22:09;;;;;;;21.10;19.40;;;20.50;99.90;;;;;;6113965;23;20849;-83
2022/06/06 05:25:03;;;;;;;46.47;41.37;;;20.50;99.90;;;;;;6129478;23;20427;-83
2022/06/06 05:27:46;;;;;;;27.17;24.60;;;20.50;99.90;;;;;;6126518;23;20434;-83
2022/06/06 05:30:19;;;;;;;17.00;15.70;;;20.50;99.90;;;;;;6127507;23;20746;-79
2022/06/06 05:33:08;;;;;;;15.00;13.80;;;20.60;99.90;;;;;;6128195;23;20505;-79
2022/06/06 05:36:06;;;;;;;14.73;13.60;;;20.60;99.90;;;;;;6127134;23;20442;-79
2022/06/06 05:38:48;;;;;;;14.10;13.00;;;20.70;99.90;;;;;;6121805;23;20443;-79
2022/06/06 05:41:25;;;;;;;14.03;12.77;;;20.70;99.90;;;;;;6127929;23;20439;-79
2022/06/06 05:44:03;;;;;;;12.03;11.20;;;20.70;99.90;;;;;;6127457;23;20427;-79
2022/06/06 05:46:38;;;;;;;14.07;12.97;;;20.70;99.90;;;;;;6127201;23;20466;-80
2022/06/06 05:49:38;;;;;;;13.93;12.93;;;20.70;99.90;;;;;;6129040;23;20431;-83
2022/06/06 05:52:18;;;;;;;12.60;11.70;;;20.70;99.90;;;;;;6129167;23;20805;-83
2022/06/06 05:55:02;;;;;;;11.83;10.83;;;20.70;99.90;;;;;;6133281;23;20709;-83
2022/06/06 05:57:56;;;;;;;12.27;11.27;;;20.80;99.90;;;;;;6127885;23;20447;-83
2022/06/06 06:00:34;;;;;;;11.10;10.30;;;20.80;99.90;;;;;;6128958;23;20518;-83
2022/06/06 06:03:33;;;;;;;14.07;12.97;;;20.90;99.90;;;;;;6128732;23;20740;-79
2022/06/06 06:06:13;;;;;;;10.83;9.93;;;20.90;99.90;;;;;;6128814;23;20475;-78
2022/06/06 06:08:59;;;;;;;13.33;12.37;;;21.00;99.90;;;;;;6139596;23;20438;-83
2022/06/06 06:11:40;;;;;;;13.57;12.57;;;21.10;99.90;;;;;;6129817;23;20815;-78
2022/06/06 06:14:33;;;;;;;12.60;11.53;;;21.20;99.90;;;;;;6120976;23;20991;-79
2022/06/06 06:17:03;;;;;;;11.67;10.87;;;21.30;99.90;;;;;;6129296;23;20736;-78
2022/06/06 06:19:35;;;;;;;11.33;10.53;;;21.30;99.90;;;;;;6129555;23;20463;-79
2022/06/06 06:22:06;;;;;;;10.37;9.67;;;21.40;99.90;;;;;;6137926;23;20692;-82
2022/06/06 06:24:37;;;;;;;11.33;10.53;;;21.50;99.90;;;;;;6133686;23;20453;-78
2022/06/06 06:27:06;;;;;;;9.77;9.07;;;21.50;99.90;;;;;;6132944;23;20442;-83
2022/06/06 06:29:33;;;;;;;11.20;10.30;;;21.70;99.90;;;;;;6138728;23;20965;-82
2022/06/06 06:32:23;;;;;;;9.77;9.00;;;21.70;99.90;;;;;;6139058;23;20975;-82
2022/06/06 06:35:02;;;;;;;10.37;9.60;;;21.80;99.90;;;;;;6138251;23;20444;-82
2022/06/06 06:37:43;;;;;;;8.90;8.30;;;21.80;99.90;;;;;;6129284;23;20437;-78
2022/06/06 06:40:20;;;;;;;9.97;9.00;;;21.90;99.90;;;;;;6139914;23;20422;-82
2022/06/06 06:43:08;;;;;;;10.73;9.93;;;21.90;99.90;;;;;;6143028;23;20438;-78
2022/06/06 06:45:38;;;;;;;10.43;9.63;;;22.00;99.90;;;;;;6127940;23;20439;-77
2022/06/06 06:48:10;;;;;;;10.87;10.07;;;22.10;99.90;;;;;;6128859;23;20520;-78
2022/06/06 06:50:49;;;;;;;9.03;8.30;;;22.10;99.90;;;;;;6127335;23;20445;-78
2022/06/06 06:53:42;;;;;;;10.13;9.30;;;22.30;99.90;;;;;;6126687;23;20505;-77
2022/06/06 06:56:22;;;;;;;8.60;8.00;;;22.40;99.90;;;;;;6125359;23;20431;-78
2022/06/06 06:58:54;;;;;;;7.97;7.37;;;22.50;99.90;;;;;;6126790;23;20442;-78
2022/06/06 07:01:30;;;;;;;8.27;7.67;;;22.60;99.90;;;;;;6127050;23;20504;-78
2022/06/06 07:10:04;;;;;;;8.60;8.00;;;23.20;99.90;;;;;;6128412;23;20513;-83
2022/06/06 07:12:49;;;;;;;6.80;6.30;;;23.40;99.90;;;;;;6127920;23;20528;-78
2022/06/06 07:15:29;;;;;;;8.60;7.90;;;23.50;99.90;;;;;;6126248;23;20423;-78
2022/06/06 07:18:01;;;;;;;8.93;8.30;;;23.70;99.90;;;;;;6126355;23;20442;-78
2022/06/06 07:20:29;;;;;;;9.87;9.17;;;23.80;99.90;;;;;;6125243;23;20441;-78
2022/06/06 07:23:02;;;;;;;9.20;8.40;;;23.90;99.90;;;;;;6125447;23;20438;-79
2022/06/06 07:25:36;;;;;;;8.70;8.00;;;24.00;99.90;;;;;;6126806;23;21002;-79
2022/06/06 07:28:04;;;;;;;9.73;8.83;;;24.10;99.90;;;;;;6125723;23;20438;-78
2022/06/06 07:30:36;;;;;;;10.00;9.00;;;24.20;99.90;;;;;;6126655;23;20563;-78
2022/06/06 07:33:19;;;;;;;9.20;8.30;;;24.30;99.90;;;;;;6125811;23;20739;-78
2022/06/06 07:35:54;;;;;;;9.90;8.30;;;24.40;99.90;;;;;;6126221;23;20510;-78
2022/06/06 07:38:42;;;;;;;9.07;8.37;;;24.60;99.90;;;;;;6126953;23;20890;-83
2022/06/06 07:41:27;;;;;;;8.00;7.40;;;24.70;99.90;;;;;;6124756;23;20441;-79
2022/06/06 07:44:06;;;;;;;8.40;7.80;;;24.80;99.90;;;;;;6125751;23;20534;-83
2022/06/06 07:46:45;;;;;;;7.77;7.17;;;24.90;99.90;;;;;;6113098;23;20947;-84
2022/06/06 07:49:20;;;;;;;8.17;7.43;;;25.00;99.90;;;;;;6126485;23;20724;-79
2022/06/06 07:51:53;;;;;;;7.40;6.33;;;25.10;99.90;;;;;;6126838;23;20911;-83
2022/06/06 07:54:36;;;;;;;7.07;6.47;;;25.20;99.90;;;;;;6126275;23;20438;-84
2022/06/06 07:57:13;;;;;;;7.43;6.83;;;25.40;99.90;;;;;;6127038;23;20446;-83
2022/06/06 07:59:52;;;;;;;8.03;7.33;;;25.50;99.90;;;;;;6125142;23;20427;-78
2022/06/06 08:02:55;;;;;;;6.80;6.23;;;25.50;99.90;;;;;;6126066;23;20930;-83
2022/06/06 08:05:52;;;;;;;7.47;6.77;;;25.60;99.90;;;;;;6125636;23;20800;-83
2022/06/06 08:08:29;;;;;;;6.83;6.33;;;25.60;99.40;;;;;;6108114;23;20434;-83
2022/06/06 08:11:05;;;;;;;6.40;5.70;;;25.80;98.90;;;;;;6124033;23;20441;-84
2022/06/06 08:13:45;;;;;;;6.13;5.73;;;25.80;98.90;;;;;;6124997;23;20750;-84
2022/06/06 08:16:22;;;;;;;5.50;5.10;;;26.00;99.00;;;;;;6125784;23;20445;-79
2022/06/06 08:19:17;;;;;;;6.87;6.30;;;26.10;97.90;;;;;;6126131;23;20753;-83
2022/06/06 08:21:47;;;;;;;6.40;5.90;;;26.10;97.60;;;;;;6126970;23;20850;-78
2022/06/06 08:24:17;;;;;;;7.07;6.47;;;26.20;97.40;;;;;;6127668;23;20513;-78
2022/06/06 08:26:48;;;;;;;6.23;5.73;;;26.30;97.20;;;;;;6126164;23;20450;-78
2022/06/06 08:29:18;;;;;;;5.97;5.57;;;26.40;96.70;;;;;;6126926;23;20438;-82
2022/06/06 08:31:45;;;;;;;5.87;5.37;;;26.40;96.50;;;;;;6128872;23;20470;-82
2022/06/06 08:34:13;;;;;;;6.90;6.30;;;26.30;96.20;;;;;;6134712;23;20442;-79
2022/06/06 08:37:07;;;;;;;5.60;5.20;;;26.20;96.00;;;;;;6134198;23;20502;-83
2022/06/06 08:39:45;;;;;;;5.63;5.23;;;26.20;95.80;;;;;;6141902;23;20915;-83
2022/06/06 08:42:25;;;;;;;5.97;5.37;;;26.20;95.20;;;;;;6129514;23;20753;-78
2022/06/06 08:45:21;;;;;;;5.10;4.80;;;26.20;95.00;;;;;;6142142;23;20418;-82
2022/06/06 08:48:18;;;;;;;5.40;5.00;;;26.30;94.80;;;;;;6127787;23;20462;-83
2022/06/06 08:51:00;;;;;;;6.43;5.90;;;26.30;94.50;;;;;;6140475;23;20434;-83
2022/06/06 08:54:10;;;;;;;7.00;5.80;;;26.30;94.20;;;;;;6145707;23;20434;-84
2022/06/06 08:56:50;;;;;;;5.37;4.90;;;26.30;93.50;;;;;;6145505;23;20484;-83
2022/06/06 08:59:53;;;;;;;6.30;5.70;;;26.40;93.50;;;;;;6144938;23;20437;-79
2022/06/06 09:03:14;;;;;;;7.53;6.93;;;26.40;92.90;;;;;;6145154;23;20430;-83
2022/06/06 09:06:34;;;;;;;6.10;5.60;;;26.40;92.20;;;;;;6146468;23;20491;-83
2022/06/06 09:09:40;;;;;;;6.07;5.67;;;26.30;92.60;;;;;;6141654;23;20454;-83
2022/06/06 09:12:44;;;;;;;6.60;6.03;;;26.30;92.20;;;;;;6127295;23;20446;-79
2022/06/06 09:15:48;;;;;;;6.37;5.87;;;26.30;91.70;;;;;;6129144;23;20445;-79
2022/06/06 09:19:07;;;;;;;7.40;6.90;;;26.20;90.90;;;;;;6128779;23;20693;-77
2022/06/06 09:22:15;;;;;;;6.20;5.70;;;26.10;90.90;;;;;;6132545;23;20439;-84
2022/06/06 09:25:13;;;;;;;6.00;5.60;;;26.00;91.30;;;;;;6129268;23;20817;-84
2022/06/06 09:28:28;;;;;;;6.93;6.23;;;25.90;91.90;;;;;;6129793;23;20442;-84
2022/06/06 09:31:34;;;;;;;7.07;6.57;;;25.80;91.40;;;;;;6130196;23;20855;-83
2022/06/06 09:34:56;;;;;;;5.60;5.10;;;25.80;91.00;;;;;;6132280;23;20418;-84
2022/06/06 09:37:37;;;;;;;5.90;5.50;;;25.60;92.70;;;;;;6118456;23;20458;-80
2022/06/06 09:40:34;;;;;;;6.73;6.23;;;25.60;91.90;;;;;;6112626;23;20511;-79
2022/06/06 09:43:18;;;;;;;6.67;6.10;;;25.50;91.80;;;;;;6127685;23;20441;-84
2022/06/06 09:46:22;;;;;;;6.03;5.53;;;25.40;91.30;;;;;;6127205;23;20438;-79
2022/06/06 09:49:18;;;;;;;7.07;6.57;;;25.30;91.90;;;;;;6126203;23;20504;-83
2022/06/06 09:52:08;;;;;;;7.20;6.70;;;25.20;91.40;;;;;;6113960;23;20518;-84
2022/06/06 10:01:35;;;;;;;6.00;5.60;;;25.00;91.70;;;;;;6094769;23;20433;-84
2022/06/06 10:04:32;;;;;;;6.20;5.70;;;25.00;91.40;;;;;;6134751;23;20442;-82
2022/06/06 10:07:39;;;;;;;5.47;5.07;;;25.00;91.70;;;;;;6129535;23;20891;-78
2022/06/06 10:10:36;;;;;;;5.67;5.27;;;25.00;91.80;;;;;;6129333;23;20448;-79
2022/06/06 10:13:28;;;;;;;5.67;5.23;;;25.00;91.70;;;;;;6128230;23;20419;-79
2022/06/06 10:16:18;;;;;;;5.60;5.30;;;25.00;92.40;;;;;;6116331;23;20447;-80
2022/06/06 10:19:14;;;;;;;5.50;5.10;;;25.00;91.90;;;;;;6129752;23;20453;-79
2022/06/06 10:22:00;;;;;;;5.53;5.23;;;25.00;91.70;;;;;;6129732;23;20442;-84
2022/06/06 10:24:49;;;;;;;5.77;5.30;;;25.00;91.70;;;;;;6130035;23;20434;-84
2022/06/06 10:27:29;;;;;;;5.97;5.57;;;24.90;91.40;;;;;;6129473;23;20990;-84
2022/06/06 10:30:12;;;;;;;5.43;5.03;;;25.00;91.50;;;;;;6113767;23;20711;-78
2022/06/06 10:33:02;;;;;;;5.30;4.90;;;25.00;91.50;;;;;;6127583;23;20715;-84
2022/06/06 10:35:48;;;;;;;5.00;4.70;;;25.00;91.40;;;;;;6115109;23;20440;-84
2022/06/06 10:38:43;;;;;;;5.50;5.20;;;25.00;91.30;;;;;;6129595;23;20493;-84
2022/06/06 10:41:26;;;;;;;5.47;5.17;;;25.00;91.40;;;;;;6129025;23;20466;-84
2022/06/06 10:44:18;;;;;;;5.53;5.13;;;25.00;91.50;;;;;;6128055;23;20434;-83
2022/06/06 10:46:59;;;;;;;5.23;4.87;;;25.00;91.40;;;;;;6112021;23;20443;-80
2022/06/06 10:49:37;;;;;;;5.60;5.23;;;25.00;91.20;;;;;;6126926;23;20911;-78
2022/06/06 10:52:24;;;;;;;5.10;4.80;;;25.00;91.10;;;;;;6111793;23;20763;-78
2022/06/06 10:55:33;;;;;;;5.10;4.70;;;25.00;90.90;;;;;;6109523;23;20442;-79
2022/06/06 10:58:30;;;;;;;5.13;4.73;;;25.00;91.10;;;;;;6053799;23;20774;-78
2022/06/06 11:01:36;;;;;;;5.60;5.20;;;25.00;91.00;;;;;;6053769;23;20455;-78
2022/06/06 11:04:45;;;;;;;6.67;6.13;;;25.00;91.10;;;;;;5998720;23;20443;-78
2022/06/06 11:07:48;;;;;;;6.63;6.13;;;25.10;91.60;;;;;;6080810;23;20443;-84
2022/06/06 11:10:44;;;;;;;6.20;5.70;;;25.10;91.10;;;;;;6084315;23;20431;-82
2022/06/06 11:13:40;;;;;;;5.10;4.80;;;25.10;90.80;;;;;;6075821;23;20435;-78
2022/06/06 11:16:33;;;;;;;5.33;4.90;;;25.10;90.60;;;;;;6069284;23;20433;-78
2022/06/06 11:19:28;;;;;;;4.80;4.40;;;25.10;90.90;;;;;;6085146;23;20451;-84
2022/06/06 11:22:27;;;;;;;6.60;5.50;;;25.10;91.50;;;;;;6088729;23;20455;-84
2022/06/06 11:25:08;;;;;;;5.40;4.90;;;25.10;91.60;;;;;;5994107;23;20435;-77
2022/06/06 11:28:14;;;;;;;5.10;4.80;;;25.10;91.70;;;;;;6079132;23;20437;-83
2022/06/06 11:31:14;;;;;;;4.80;4.50;;;25.10;91.30;;;;;;6084176;23;20460;-84
2022/06/06 11:34:27;;;;;;;5.17;4.80;;;25.00;91.10;;;;;;6047649;23;20440;-81
2022/06/06 11:37:29;;;;;;;5.47;5.07;;;25.00;90.90;;;;;;6075962;23;20436;-83
2022/06/06 11:40:35;;;;;;;4.97;4.57;;;25.00;90.80;;;;;;6084926;23;20439;-85
2022/06/06 11:43:46;;;;;;;4.97;4.67;;;25.00;91.00;;;;;;6068827;23;20475;-79
2022/06/06 11:46:58;;;;;;;4.83;4.43;;;25.10;91.20;;;;;;6072012;23;20439;-81
2022/06/06 11:50:09;;;;;;;6.87;6.37;;;25.00;90.80;;;;;;6039964;23;20452;-79
2022/06/06 11:53:12;;;;;;;5.27;4.50;;;25.00;91.60;;;;;;6071885;23;20432;-79
2022/06/06 11:55:59;;;;;;;4.93;4.53;;;25.00;91.00;;;;;;6071518;23;20444;-78
2022/06/06 11:59:04;;;;;;;6.17;5.57;;;25.10;90.80;;;;;;6127403;23;20497;-80
2022/06/06 12:02:03;;;;;;;4.53;4.20;;;25.00;90.70;;;;;;6117808;23;20438;-79
2022/06/06 12:05:09;;;;;;;5.00;4.60;;;25.00;90.60;;;;;;6130879;23;20431;-79
2022/06/06 12:08:05;;;;;;;4.73;4.40;;;25.00;90.70;;;;;;6129696;23;20431;-79
2022/06/06 12:10:54;;;;;;;4.87;4.57;;;25.00;90.70;;;;;;6140428;23;20439;-79
2022/06/06 12:14:10;;;;;;;4.70;4.40;;;25.00;90.70;;;;;;6117034;23;20438;-79
2022/06/06 12:16:51;;;;;;;5.53;5.10;;;25.00;90.60;;;;;;6111923;23;20447;-79
2022/06/06 12:20:03;;;;;;;4.83;4.43;;;25.00;90.80;;;;;;6125314;23;20795;-79
2022/06/06 12:23:03;;;;;;;4.40;4.00;;;24.90;90.70;;;;;;6083590;23;20939;-83
2022/06/06 12:26:22;;;;;;;5.20;4.80;;;24.90;90.80;;;;;;6096721;23;20509;-80
2022/06/06 12:29:32;;;;;;;5.40;5.00;;;25.00;90.80;;;;;;6131868;23;20530;-83
2022/06/06 12:32:21;;;;;;;5.00;4.60;;;25.00;91.10;;;;;;6128426;23;20423;-83
2022/06/06 12:34:54;;;;;;;4.77;4.40;;;24.90;90.60;;;;;;6143059;23;20498;-83
2022/06/06 12:37:29;;;;;;;6.17;4.43;;;24.80;90.40;;;;;;6133465;23;21187;-82
2022/06/06 12:40:17;;;;;;;4.83;4.43;;;24.70;90.10;;;;;;6111607;23;20434;-78
2022/06/06 12:43:14;;;;;;;4.50;4.20;;;24.50;90.30;;;;;;6124501;23;20470;-76
2022/06/06 12:45:58;;;;;;;5.03;4.63;;;24.30;90.60;;;;;;6126395;23;20767;-79
2022/06/06 12:51:52;;;;;;;7.40;6.80;;;24.20;95.10;;;;;;6126963;23;20442;-80
2022/06/06 12:57:29;;;;;;;6.63;5.30;;;24.40;97.00;;;;;;6128748;23;20494;-83
2022/06/06 13:00:06;;;;;;;4.83;4.43;;;24.40;98.50;;;;;;6124986;23;20430;-79
2022/06/06 13:02:52;;;;;;;5.63;4.70;;;24.50;99.70;;;;;;6126467;23;20434;-79
2022/06/06 13:05:33;;;;;;;4.80;4.40;;;24.60;97.80;;;;;;6125957;23;20730;-79
2022/06/06 13:08:25;;;;;;;5.13;4.00;;;24.60;97.90;;;;;;6128130;23;20438;-83
2022/06/06 13:11:09;;;;;;;5.77;5.27;;;24.70;97.60;;;;;;6128147;23;20439;-79
2022/06/06 13:13:58;;;;;;;6.20;5.70;;;24.80;97.60;;;;;;6129686;23;20514;-85
2022/06/06 13:19:59;;;;;;;5.07;4.77;;;24.90;97.90;;;;;;6132029;23;20934;-84
2022/06/06 13:22:47;;;;;;;6.30;5.80;;;25.00;97.20;;;;;;6129788;23;20441;-79
2022/06/06 13:25:26;;;;;;;6.13;5.73;;;25.00;96.00;;;;;;6128058;23;20438;-79
2022/06/06 13:28:01;;;;;;;5.93;5.43;;;25.00;95.50;;;;;;6126440;23;20438;-80
2022/06/06 13:30:33;;;;;;;4.80;4.50;;;25.00;96.70;;;;;;6127058;23;20449;-78
2022/06/06 13:33:15;;;;;;;5.47;5.07;;;25.10;96.10;;;;;;6129517;23;20476;-83
2022/06/06 13:35:53;;;;;;;4.90;4.60;;;25.10;95.50;;;;;;6127810;23;20438;-79
2022/06/06 13:38:48;;;;;;;4.80;4.40;;;25.00;95.10;;;;;;6112059;23;20445;-79
2022/06/06 13:41:27;;;;;;;5.77;5.27;;;25.00;95.50;;;;;;6124207;23;20434;-84
2022/06/06 13:44:07;;;;;;;4.97;4.57;;;24.90;95.30;;;;;;6101166;23;20559;-83
2022/06/06 13:46:50;;;;;;;5.60;5.20;;;24.90;95.20;;;;;;6118181;23;20448;-85
2022/06/06 13:49:35;;;;;;;4.70;4.40;;;24.90;95.00;;;;;;6130221;23;20467;-80
2022/06/06 13:52:33;;;;;;;6.57;6.07;;;24.90;93.90;;;;;;6130858;23;20458;-83
2022/06/06 13:55:26;;;;;;;6.73;6.23;;;25.00;96.00;;;;;;6115821;23;20987;-83
2022/06/06 13:58:19;;;;;;;6.97;6.37;;;25.00;95.30;;;;;;6113546;23;20522;-84
2022/06/06 14:01:05;;;;;;;5.33;4.80;;;25.00;95.30;;;;;;6113806;23;20438;-84
2022/06/06 14:04:29;;;;;;;5.50;5.10;;;25.00;94.50;;;;;;6104832;23;20442;-83
2022/06/06 14:08:09;;;;;;;4.97;4.57;;;24.90;95.00;;;;;;6033653;23;20461;-84
2022/06/06 14:11:19;;;;;;;4.67;4.27;;;25.00;93.30;;;;;;6112894;23;20438;-83
2022/06/06 14:13:53;;;;;;;5.27;4.87;;;25.10;92.90;;;;;;6127189;23;20501;-80
2022/06/06 14:16:27;;;;;;;6.83;6.23;;;25.10;93.10;;;;;;6127879;23;20443;-79
2022/06/06 14:18:57;;;;;;;6.07;5.57;;;25.10;92.80;;;;;;6130876;23;20466;-84
2022/06/06 14:21:29;;;;;;;6.43;5.93;;;25.00;93.00;;;;;;6133492;23;20454;-84
2022/06/06 14:24:12;;;;;;;7.93;5.73;;;25.00;93.20;;;;;;6133265;23;20454;-85
2022/06/06 14:26:42;;;;;;;5.70;5.30;;;25.00;93.60;;;;;;6135343;23;20930;-85
2022/06/06 14:29:14;;;;;;;6.50;5.60;;;25.00;93.60;;;;;;6128966;23;20430;-79
2022/06/06 14:31:49;;;;;;;7.27;6.57;;;24.90;93.00;;;;;;6127302;23;20435;-79